Time;durP1;ratioP1;P1;durP2;ratioP2;P2;SDS_P1;SDS_P2;PMS_P1;PMS_P2;Temp;Humidity;BMP_temperature;BMP_pressure;BME280_temperature;BME280_humidity;BME280_pressure;Samples;Min_cycle;Max_cycle;Signal;HPM_P1;HPM_P2
2022/10/24 00:01:40;;;;;;;2.88;1.27;;;;;;;13.52;100.00;98004.06;15286432;19;20006;-61
2022/10/24 00:07:05;;;;;;;3.33;1.40;;;;;;;13.51;100.00;98015.06;15283967;19;20029;-60
2022/10/24 00:12:30;;;;;;;5.05;1.40;;;;;;;13.53;100.00;98007.59;15283567;19;20029;-60
2022/10/24 00:17:57;;;;;;;5.20;1.48;;;;;;;13.58;100.00;98015.97;15276745;19;20022;-60
2022/10/24 00:23:21;;;;;;;3.15;1.40;;;;;;;13.65;100.00;98011.47;15284071;19;20031;-60
2022/10/24 00:28:47;;;;;;;4.32;1.40;;;;;;;13.70;100.00;98002.81;15282233;19;20041;-57
2022/10/24 00:34:15;;;;;;;3.30;1.35;;;;;;;13.71;100.00;98004.44;15283363;19;20021;-60
2022/10/24 00:39:40;;;;;;;5.70;1.30;;;;;;;13.84;100.00;97993.75;15278036;19;20499;-59
2022/10/24 00:45:34;;;;;;;3.03;1.20;;;;;;;13.87;100.00;97997.97;15282015;19;20576;-60
2022/10/24 00:51:06;;;;;;;2.80;1.20;;;;;;;13.89;100.00;97984.22;15270543;19;20053;-61
2022/10/24 00:56:35;;;;;;;3.22;1.30;;;;;;;13.83;100.00;97978.53;15283179;19;20029;-59
2022/10/24 01:01:59;;;;;;;4.45;1.27;;;;;;;13.81;100.00;97991.47;15282656;19;20050;-61
2022/10/24 01:07:46;;;;;;;4.35;1.23;;;;;;;13.74;100.00;97993.25;15282873;19;20436;-59
2022/10/24 01:13:13;;;;;;;2.78;1.38;;;;;;;13.78;100.00;97983.72;15281621;19;20022;-60
2022/10/24 01:18:42;;;;;;;3.25;1.25;;;;;;;13.77;100.00;97987.44;15280802;19;20003;-61
2022/10/24 01:24:30;;;;;;;3.88;1.30;;;;;;;13.73;100.00;97980.75;15272508;19;20033;-59
2022/10/24 01:30:09;;;;;;;2.95;1.42;;;;;;;13.64;100.00;97980.00;15276988;19;20021;-59
2022/10/24 01:35:39;;;;;;;4.28;1.50;;;;;;;13.71;100.00;97989.06;15281172;19;20007;-61
2022/10/24 01:41:07;;;;;;;3.65;1.27;;;;;;;13.71;100.00;97982.78;15273971;19;20361;-59
2022/10/24 01:46:38;;;;;;;3.28;1.40;;;;;;;13.70;100.00;97986.56;15277932;19;20021;-58
2022/10/24 01:52:07;;;;;;;4.97;1.40;;;;;;;13.68;100.00;97988.63;15274292;19;20074;-61
2022/10/24 01:57:34;;;;;;;5.57;1.50;;;;;;;13.66;100.00;97988.78;15273516;19;20014;-59
2022/10/24 02:03:04;;;;;;;3.03;1.45;;;;;;;13.66;100.00;97991.50;15283571;19;20016;-62
2022/10/24 02:08:34;;;;;;;4.13;1.30;;;;;;;13.67;100.00;97986.94;15272904;19;20017;-60
2022/10/24 02:14:02;;;;;;;4.25;1.45;;;;;;;13.66;100.00;97979.84;15275126;19;20117;-60
2022/10/24 02:19:29;;;;;;;5.70;1.30;;;;;;;13.62;100.00;97975.84;15276321;19;20010;-59
2022/10/24 02:25:00;;;;;;;2.88;1.48;;;;;;;13.55;100.00;97979.31;15272749;19;20022;-62
2022/10/24 02:30:26;;;;;;;6.15;1.60;;;;;;;13.52;100.00;97976.16;15269416;19;20014;-60
2022/10/24 02:35:56;;;;;;;4.07;1.50;;;;;;;13.48;100.00;97964.03;15275860;19;20296;-62
2022/10/24 02:41:24;;;;;;;3.08;1.30;;;;;;;13.45;100.00;97975.22;15274128;19;20025;-61
2022/10/24 02:46:50;;;;;;;2.97;1.33;;;;;;;13.44;100.00;97982.53;15276018;19;20350;-62
2022/10/24 02:52:18;;;;;;;5.13;1.70;;;;;;;13.41;100.00;97977.50;15271168;19;20014;-60
2022/10/24 02:57:42;;;;;;;3.53;1.45;;;;;;;13.44;100.00;97966.28;15275594;19;20019;-61
2022/10/24 03:03:06;;;;;;;3.75;1.55;;;;;;;13.43;100.00;97970.03;15269090;19;20015;-60
2022/10/24 03:08:34;;;;;;;5.18;1.52;;;;;;;13.39;100.00;97968.69;15272850;19;20018;-59
2022/10/24 03:13:59;;;;;;;4.45;1.73;;;;;;;13.35;100.00;97979.06;15273782;19;20018;-61
2022/10/24 03:19:17;;;;;;;3.75;1.45;;;;;;;13.33;100.00;97996.50;15270358;19;20022;-61
2022/10/24 03:24:44;;;;;;;6.32;1.70;;;;;;;13.30;100.00;97996.88;15284007;19;20413;-62
2022/10/24 03:30:14;;;;;;;4.13;1.45;;;;;;;13.30;100.00;97992.31;15282176;19;20019;-63
2022/10/24 03:35:38;;;;;;;8.80;1.60;;;;;;;13.28;100.00;97993.53;15280148;19;20381;-62
2022/10/24 03:41:06;;;;;;;3.90;1.40;;;;;;;13.28;100.00;98005.19;15281361;19;20385;-61
2022/10/24 03:46:31;;;;;;;5.95;1.58;;;;;;;13.26;100.00;97991.84;15286514;19;20377;-59
2022/10/24 03:51:55;;;;;;;6.70;1.67;;;;;;;13.28;100.00;97998.94;15279669;19;20017;-62
2022/10/24 03:57:23;;;;;;;4.35;1.50;;;;;;;13.32;100.00;98000.25;15273995;19;20010;-62
2022/10/24 04:02:49;;;;;;;4.38;1.65;;;;;;;13.30;100.00;97996.88;15276235;19;20425;-61
2022/10/24 04:08:15;;;;;;;5.95;1.50;;;;;;;13.33;100.00;98001.94;15285915;19;20348;-62
2022/10/24 04:13:42;;;;;;;3.47;1.20;;;;;;;13.36;100.00;97990.69;15283099;19;20495;-59
2022/10/24 04:19:06;;;;;;;6.97;1.52;;;;;;;13.38;100.00;97983.25;15281027;19;20374;-61
2022/10/24 04:24:38;;;;;;;4.07;1.40;;;;;;;13.35;100.00;97986.31;15280252;19;20389;-62
2022/10/24 04:30:09;;;;;;;3.25;1.45;;;;;;;13.33;100.00;97974.88;15274686;19;20019;-62
2022/10/24 04:35:34;;;;;;;3.25;1.30;;;;;;;13.38;100.00;97980.53;15276934;19;20014;-62
2022/10/24 04:40:58;;;;;;;6.22;1.30;;;;;;;13.56;100.00;97967.47;15278545;19;20018;-62
2022/10/24 04:46:31;;;;;;;4.40;1.60;;;;;;;13.54;100.00;97960.53;15280931;19;20031;-62
2022/10/24 04:51:55;;;;;;;3.72;1.40;;;;;;;13.56;100.00;97975.59;15271908;19;20028;-62
2022/10/24 04:57:20;;;;;;;6.18;1.50;;;;;;;13.54;100.00;97966.81;15273067;19;20321;-62
2022/10/24 05:02:47;;;;;;;3.97;1.35;;;;;;;13.50;100.00;97951.16;15275297;19;20035;-63
2022/10/24 05:08:16;;;;;;;3.90;1.40;;;;;;;13.45;100.00;97942.75;15275038;19;20484;-62
2022/10/24 05:13:42;;;;;;;5.43;1.60;;;;;;;13.40;100.00;97956.88;15278810;19;20260;-62
2022/10/24 05:19:10;;;;;;;5.47;1.50;;;;;;;13.37;100.00;97968.03;15282811;19;20041;-62
2022/10/24 05:24:34;;;;;;;4.70;1.40;;;;;;;13.39;100.00;97979.50;15277404;19;20018;-62
2022/10/24 05:30:00;;;;;;;3.78;1.27;;;;;;;13.41;100.00;97967.50;15271502;19;20049;-62
2022/10/24 05:35:27;;;;;;;5.78;1.60;;;;;;;13.40;100.00;97973.09;15272807;19;20020;-62
2022/10/24 05:40:52;;;;;;;3.67;1.35;;;;;;;13.41;100.00;97972.06;15267781;19;20003;-61
2022/10/24 05:46:17;;;;;;;5.68;1.60;;;;;;;13.38;100.00;97973.28;15281089;19;20014;-61
2022/10/24 05:51:45;;;;;;;4.40;1.30;;;;;;;13.36;100.00;97959.09;15270603;19;20010;-59
2022/10/24 05:57:10;;;;;;;5.65;1.25;;;;;;;13.33;100.00;97958.63;15280155;19;20029;-62
2022/10/24 06:02:35;;;;;;;6.30;1.33;;;;;;;13.28;100.00;97961.06;15271905;19;20544;-61
2022/10/24 06:08:02;;;;;;;4.03;1.40;;;;;;;13.26;100.00;97970.19;15272150;19;20081;-62
2022/10/24 06:13:27;;;;;;;4.95;1.33;;;;;;;13.27;100.00;97971.06;15265527;19;20010;-63
2022/10/24 06:18:53;;;;;;;6.30;1.40;;;;;;;13.26;100.00;97969.38;15278514;19;20049;-59
2022/10/24 06:24:21;;;;;;;22.15;3.13;;;;;;;13.29;100.00;97946.50;15274470;19;20496;-63
2022/10/24 06:29:46;;;;;;;6.75;1.42;;;;;;;13.32;100.00;97956.97;15268451;19;20011;-61
2022/10/24 06:35:12;;;;;;;7.57;1.85;;;;;;;13.45;100.00;97994.19;15278628;19;20023;-62
2022/10/24 06:40:41;;;;;;;4.70;1.30;;;;;;;13.52;100.00;98006.75;15273578;19;20022;-61
2022/10/24 06:46:05;;;;;;;3.13;1.17;;;;;;;13.63;100.00;98016.25;15270829;19;20022;-62
2022/10/24 06:51:30;;;;;;;3.17;1.05;;;;;;;13.72;100.00;98025.06;15270843;19;20007;-63
2022/10/24 06:56:57;;;;;;;7.57;1.40;;;;;;;13.77;100.00;98044.31;15275042;19;20560;-62
2022/10/24 07:02:22;;;;;;;9.70;1.60;;;;;;;13.79;100.00;98031.44;15275189;19;20033;-62
2022/10/24 07:07:48;;;;;;;3.58;1.20;;;;;;;13.80;100.00;98019.56;15272105;19;20018;-61
2022/10/24 07:13:15;;;;;;;8.45;1.55;;;;;;;13.84;100.00;98026.25;15270335;19;20473;-62
2022/10/24 07:18:40;;;;;;;4.60;1.33;;;;;;;13.94;100.00;98031.38;15267996;19;20035;-62
2022/10/24 07:24:05;;;;;;;6.35;1.20;;;;;;;14.02;100.00;98022.28;15271266;19;20010;-60
2022/10/24 07:29:34;;;;;;;4.78;1.40;;;;;;;14.11;100.00;98029.25;15266629;19;20011;-61
2022/10/24 07:34:59;;;;;;;2.63;1.13;;;;;;;14.22;100.00;97995.38;15272356;19;20011;-63
2022/10/24 07:40:24;;;;;;;4.82;1.23;;;;;;;14.30;100.00;97997.94;15269312;19;20049;-61
2022/10/24 07:45:51;;;;;;;3.88;1.30;;;;;;;14.39;100.00;98012.19;15271958;19;20050;-61
2022/10/24 07:51:36;;;;;;;3.85;1.08;;;;;;;14.55;100.00;98021.91;15261380;19;20010;-63
2022/10/24 07:57:01;;;;;;;5.28;1.20;;;;;;;14.63;100.00;98016.31;15271625;19;20456;-60
2022/10/24 08:02:28;;;;;;;3.28;0.98;;;;;;;14.72;100.00;98011.63;15264938;19;20033;-62
2022/10/24 08:07:54;;;;;;;3.22;1.20;;;;;;;14.82;100.00;97984.13;15269963;19;20018;-61
2022/10/24 08:13:38;;;;;;;3.30;1.50;;;;;;;14.94;100.00;97976.28;15277809;19;20021;-62
2022/10/24 08:19:13;;;;;;;3.50;1.35;;;;;;;15.02;100.00;97994.28;15283449;19;20025;-60
2022/10/24 08:24:39;;;;;;;4.72;1.40;;;;;;;15.10;100.00;97992.25;15278130;19;20018;-63
2022/10/24 08:30:03;;;;;;;3.88;1.30;;;;;;;15.18;100.00;97988.50;15270789;19;20014;-61
2022/10/24 08:35:30;;;;;;;3.45;1.40;;;;;;;15.20;100.00;97986.44;15280599;19;20049;-62
2022/10/24 08:40:56;;;;;;;5.22;1.23;;;;;;;15.27;100.00;97972.88;15281374;19;20025;-60
2022/10/24 08:46:47;;;;;;;5.72;1.20;;;;;;;15.29;100.00;97981.66;15284365;19;20021;-61
2022/10/24 08:52:25;;;;;;;3.77;1.20;;;;;;;15.33;100.00;97985.66;15276314;19;20496;-61
2022/10/24 08:57:54;;;;;;;3.72;1.30;;;;;;;15.38;100.00;97993.19;15278027;19;20031;-57
2022/10/24 09:03:27;;;;;;;4.07;1.20;;;;;;;15.43;100.00;97996.13;15271613;19;20033;-62
2022/10/24 09:09:22;;;;;;;4.72;1.30;;;;;;;15.49;100.00;97980.91;15279720;19;20010;-61
2022/10/24 09:14:48;;;;;;;5.47;1.30;;;;;;;15.57;100.00;97980.75;15276105;19;20026;-63
2022/10/24 09:20:24;;;;;;;5.88;1.30;;;;;;;15.57;100.00;97987.00;15270333;19;20033;-62
2022/10/24 09:26:02;;;;;;;4.05;1.30;;;;;;;15.61;100.00;97968.41;15275030;19;20007;-61
2022/10/24 09:31:28;;;;;;;5.35;1.30;;;;;;;15.68;100.00;97972.00;15275602;19;20022;-61
2022/10/24 09:36:53;;;;;;;3.78;1.45;;;;;;;15.80;100.00;97974.94;15280867;19;20014;-62
2022/10/24 09:42:23;;;;;;;5.70;1.30;;;;;;;15.86;100.00;97978.72;15276322;19;20318;-61
2022/10/24 09:47:47;;;;;;;3.40;1.13;;;;;;;15.95;100.00;97966.63;15281097;19;20045;-62
2022/10/24 09:53:25;;;;;;;3.58;1.00;;;;;;;15.96;100.00;97970.19;15272421;19;20013;-61
2022/10/24 09:58:52;;;;;;;4.47;1.50;;;;;;;16.01;100.00;97976.66;15266351;19;20021;-58
2022/10/24 10:04:19;;;;;;;4.03;1.30;;;;;;;16.03;100.00;97973.72;15273232;19;20014;-58
2022/10/24 10:09:44;;;;;;;4.88;1.40;;;;;;;16.09;100.00;97982.94;15274793;19;20033;-55
2022/10/24 10:15:28;;;;;;;4.07;1.45;;;;;;;16.08;100.00;97986.69;15277237;19;20477;-58
2022/10/24 10:20:52;;;;;;;3.75;1.20;;;;;;;16.15;100.00;97976.69;15267478;19;20030;-61
2022/10/24 10:26:30;;;;;;;5.45;1.40;;;;;;;16.21;100.00;97973.13;15276812;19;20026;-61
2022/10/24 10:32:05;;;;;;;4.82;1.30;;;;;;;16.28;100.00;97971.25;15265900;19;20018;-61
2022/10/24 10:37:35;;;;;;;3.60;1.33;;;;;;;16.35;100.00;97971.22;15277593;19;20026;-62
2022/10/24 10:43:15;;;;;;;3.38;1.23;;;;;;;16.35;100.00;97962.25;15269426;19;20007;-61
2022/10/24 10:48:54;;;;;;;3.90;1.10;;;;;;;16.35;100.00;97956.81;15274224;19;20023;-62
2022/10/24 10:54:48;;;;;;;4.72;1.30;;;;;;;16.30;100.00;97974.56;15268913;19;20026;-62
2022/10/24 11:00:18;;;;;;;4.13;1.20;;;;;;;16.35;100.00;97968.50;15272226;19;20385;-61
2022/10/24 11:05:54;;;;;;;4.65;1.50;;;;;;;16.30;100.00;97960.16;15268724;19;20357;-63
2022/10/24 11:11:24;;;;;;;3.50;1.17;;;;;;;16.33;100.00;97963.28;15272265;19;20029;-59
2022/10/24 11:16:50;;;;;;;4.20;1.30;;;;;;;16.31;100.00;97970.00;15274836;19;20019;-61
2022/10/24 11:22:25;;;;;;;5.75;1.40;;;;;;;16.31;100.00;97973.53;15271979;19;20025;-60
2022/10/24 11:28:01;;;;;;;3.72;1.27;;;;;;;16.30;100.00;97973.75;15272324;19;20026;-62
2022/10/24 11:33:29;;;;;;;5.57;1.25;;;;;;;16.33;100.00;97971.44;15272024;19;20018;-61
2022/10/24 11:39:03;;;;;;;3.55;1.40;;;;;;;16.33;100.00;97962.47;15266097;19;20023;-61
2022/10/24 11:44:47;;;;;;;2.88;1.08;;;;;;;16.31;100.00;97957.22;15280229;19;20018;-61
2022/10/24 11:50:18;;;;;;;3.10;1.08;;;;;;;16.40;100.00;97967.91;15281929;19;20041;-62
2022/10/24 11:55:52;;;;;;;2.38;0.95;;;;;;;16.45;100.00;97958.06;15286028;19;20033;-59
2022/10/24 12:01:40;;;;;;;3.38;1.00;;;;;;;16.50;100.00;97954.72;15282291;19;20492;-61
2022/10/24 12:07:33;;;;;;;2.28;0.68;;;;;;;16.56;100.00;97956.56;15280525;19;20026;-58
2022/10/24 12:13:19;;;;;;;3.50;0.80;;;;;;;16.61;100.00;97939.63;15282033;19;20025;-62
2022/10/24 12:18:48;;;;;;;4.47;0.90;;;;;;;16.67;100.00;97933.34;15283504;19;20030;-62
2022/10/24 12:24:14;;;;;;;3.53;0.90;;;;;;;16.75;100.00;97932.28;15282055;19;20536;-61
2022/10/24 12:29:48;;;;;;;4.50;0.80;;;;;;;16.73;100.00;97935.19;15275418;19;20018;-61
2022/10/24 12:35:55;;;;;;;1.77;0.88;;;;;;;16.73;100.00;97942.53;15280971;19;20484;-62
2022/10/24 12:41:47;;;;;;;3.22;0.88;;;;;;;16.72;100.00;97927.25;15275406;19;20484;-61
2022/10/24 12:47:37;;;;;;;3.00;0.80;;;;;;;16.68;100.00;97921.41;15283530;19;20037;-60
2022/10/24 12:53:13;;;;;;;2.85;0.80;;;;;;;16.63;100.00;97923.94;15283302;19;20032;-60
2022/10/24 12:58:41;;;;;;;1.65;0.70;;;;;;;16.53;100.00;97929.78;15280892;19;20022;-61
2022/10/24 13:04:38;;;;;;;3.10;0.88;;;;;;;16.46;100.00;97928.97;15282108;19;20361;-60
2022/10/24 13:10:17;;;;;;;3.53;0.90;;;;;;;16.44;100.00;97922.91;15278970;19;20016;-60
2022/10/24 13:15:48;;;;;;;3.60;1.00;;;;;;;16.41;100.00;97910.59;15272030;19;20045;-61
2022/10/24 13:21:24;;;;;;;2.38;0.70;;;;;;;16.42;100.00;97916.84;15278664;19;20010;-61
2022/10/24 13:27:19;;;;;;;3.10;0.70;;;;;;;16.37;100.00;97920.19;15278947;19;20028;-62
2022/10/24 13:32:44;;;;;;;1.90;0.80;;;;;;;16.35;100.00;97913.31;15277809;19;20013;-60
2022/10/24 13:38:09;;;;;;;1.85;0.70;;;;;;;16.36;100.00;97918.53;15279197;19;20023;-61
2022/10/24 13:43:44;;;;;;;1.77;0.75;;;;;;;16.33;100.00;97910.81;15274995;19;20022;-58
2022/10/24 13:49:09;;;;;;;2.92;0.90;;;;;;;16.41;100.00;97923.34;15277325;19;20747;-60
2022/10/24 13:54:38;;;;;;;2.47;0.90;;;;;;;16.45;100.00;97924.59;15276224;19;20101;-58
2022/10/24 14:00:07;;;;;;;3.50;0.90;;;;;;;16.51;100.00;97914.75;15277338;19;20025;-61
2022/10/24 14:05:36;;;;;;;6.47;1.10;;;;;;;16.51;100.00;97920.19;15276888;19;20045;-62
2022/10/24 14:11:02;;;;;;;2.55;0.90;;;;;;;16.49;100.00;97917.69;15274174;19;20022;-62
2022/10/24 14:16:31;;;;;;;2.20;0.90;;;;;;;16.46;100.00;97923.53;15273212;19;20432;-63
2022/10/24 14:21:57;;;;;;;3.08;1.00;;;;;;;16.45;100.00;97920.00;15278463;19;20002;-60
2022/10/24 14:27:29;;;;;;;4.38;1.02;;;;;;;16.41;100.00;97899.72;15269410;19;20018;-62
2022/10/24 14:33:09;;;;;;;2.25;1.00;;;;;;;16.41;100.00;97923.34;15271773;19;20025;-62
2022/10/24 14:38:35;;;;;;;4.03;1.20;;;;;;;16.44;100.00;97925.63;15263958;19;20687;-62
2022/10/24 14:44:03;;;;;;;3.00;1.30;;;;;;;16.44;100.00;97922.91;15270247;19;20023;-62
2022/10/24 14:49:37;;;;;;;3.40;1.48;;;;;;;16.63;100.00;97924.78;15259171;19;20018;-64
2022/10/24 14:55:05;;;;;;;1.48;1.05;;;;;;;16.75;100.00;97913.25;15267945;19;20021;-62
2022/10/24 15:00:32;;;;;;;6.15;1.17;;;;;;;16.88;100.00;97917.78;14755274;19;10000969;-60
2022/10/24 15:06:09;;;;;;;5.10;1.00;;;;;;;16.82;100.00;97924.94;15266752;19;20799;-62
2022/10/24 15:11:36;;;;;;;4.38;1.00;;;;;;;16.75;100.00;97926.84;15269797;19;20014;-62
2022/10/24 15:17:04;;;;;;;1.80;0.80;;;;;;;16.70;100.00;97940.25;15278522;19;20021;-63
2022/10/24 15:22:37;;;;;;;3.13;1.10;;;;;;;16.67;100.00;97929.78;15291454;19;20040;-60
2022/10/24 15:28:10;;;;;;;2.40;1.20;;;;;;;16.55;100.00;97929.59;15273649;19;20029;-62
2022/10/24 15:33:35;;;;;;;3.53;1.38;;;;;;;16.39;100.00;97925.44;15295204;19;20022;-62
2022/10/24 15:39:08;;;;;;;4.63;1.20;;;;;;;16.28;100.00;97925.06;15289887;19;20011;-62
2022/10/24 15:44:34;;;;;;;3.15;1.20;;;;;;;16.16;100.00;97929.44;15295592;19;20018;-60
2022/10/24 15:49:58;;;;;;;5.15;1.10;;;;;;;16.05;100.00;97917.31;15292110;19;20622;-62
2022/10/24 15:55:29;;;;;;;3.75;1.13;;;;;;;15.97;100.00;97929.22;15284367;19;20024;-60
2022/10/24 16:00:53;;;;;;;5.18;1.52;;;;;;;15.83;100.00;97924.78;15289942;19;20018;-62
2022/10/24 16:06:19;;;;;;;3.97;1.30;;;;;;;15.78;100.00;97925.41;15295124;19;20433;-63
2022/10/24 16:11:46;;;;;;;5.93;1.35;;;;;;;15.73;100.00;97938.78;15288113;19;20011;-61
2022/10/24 16:17:11;;;;;;;6.00;1.35;;;;;;;15.67;100.00;97940.44;15294178;19;20018;-61
2022/10/24 16:22:35;;;;;;;4.60;1.30;;;;;;;15.64;100.00;97953.59;15294800;19;20025;-61
2022/10/24 16:28:09;;;;;;;3.03;1.30;;;;;;;15.58;100.00;97966.13;15279916;19;20006;-60
2022/10/24 16:33:36;;;;;;;3.20;1.20;;;;;;;15.52;100.00;97967.75;15278176;19;20014;-62
2022/10/24 16:39:01;;;;;;;4.10;1.30;;;;;;;15.41;100.00;97966.47;15273633;19;20037;-63
2022/10/24 16:44:30;;;;;;;4.72;1.45;;;;;;;15.34;100.00;97968.34;15274995;19;20624;-63
2022/10/24 16:49:54;;;;;;;4.03;1.40;;;;;;;15.24;100.00;97987.72;15273677;19;20015;-61
2022/10/24 16:55:19;;;;;;;3.65;1.10;;;;;;;15.15;100.00;97993.50;15274748;19;20018;-62
2022/10/24 17:00:46;;;;;;;4.15;1.20;;;;;;;15.06;100.00;98004.53;15263797;19;20019;-62
2022/10/24 17:06:11;;;;;;;4.28;1.50;;;;;;;14.97;100.00;97992.19;15277846;19;20516;-62
2022/10/24 17:11:35;;;;;;;3.08;1.20;;;;;;;14.91;100.00;97995.66;15276606;19;20418;-61
2022/10/24 17:17:06;;;;;;;4.97;1.42;;;;;;;14.89;100.00;98014.00;15271449;19;20023;-61
2022/10/24 17:22:31;;;;;;;3.97;1.60;;;;;;;14.79;100.00;98003.53;15274798;19;20010;-60
2022/10/24 17:27:56;;;;;;;4.82;1.80;;;;;;;14.75;100.00;98005.81;15281932;19;20014;-59
2022/10/24 17:33:24;;;;;;;3.00;1.35;;;;;;;14.70;100.00;98013.69;15267927;19;20634;-61
2022/10/24 17:39:02;;;;;;;5.32;1.52;;;;;;;14.71;100.00;98006.38;15271101;19;20353;-60
2022/10/24 17:44:27;;;;;;;3.83;1.30;;;;;;;14.70;100.00;98023.72;15273060;19;20370;-61
2022/10/24 17:49:55;;;;;;;3.80;1.33;;;;;;;14.70;100.00;98035.38;15268644;19;20035;-60
2022/10/24 17:55:26;;;;;;;4.65;1.98;;;;;;;14.74;100.00;98050.25;15271988;19;20346;-62
2022/10/24 18:01:09;;;;;;;5.60;1.70;;;;;;;14.73;100.00;98045.00;15262955;19;20022;-62
2022/10/24 18:06:37;;;;;;;4.50;1.85;;;;;;;14.70;100.00;98046.22;15269325;19;20036;-60
2022/10/24 18:12:01;;;;;;;5.47;1.90;;;;;;;14.66;100.00;98054.94;15269502;19;20011;-62
2022/10/24 18:17:26;;;;;;;5.03;1.60;;;;;;;14.63;100.00;98058.88;15261138;19;20032;-61
2022/10/24 18:22:53;;;;;;;4.55;1.65;;;;;;;14.58;100.00;98056.72;15270780;19;20018;-61
2022/10/24 18:28:18;;;;;;;5.25;1.73;;;;;;;14.47;100.00;98051.84;15267076;19;20041;-61
2022/10/24 18:33:42;;;;;;;5.78;1.77;;;;;;;14.40;100.00;98054.53;15262018;19;20025;-62
2022/10/24 18:39:11;;;;;;;3.28;1.60;;;;;;;14.32;100.00;98057.34;15267130;19;20022;-61
2022/10/24 18:44:39;;;;;;;5.07;1.85;;;;;;;14.31;100.00;98055.66;15272201;19;20014;-60
2022/10/24 18:50:13;;;;;;;4.72;1.58;;;;;;;14.28;100.00;98058.78;15259510;19;20500;-58
2022/10/24 18:55:44;;;;;;;5.97;2.03;;;;;;;14.26;100.00;98071.69;15267347;19;20030;-59
2022/10/24 19:01:18;;;;;;;8.20;1.93;;;;;;;14.24;100.00;98060.19;15263968;19;20018;-59
2022/10/24 19:06:43;;;;;;;5.38;1.90;;;;;;;14.22;100.00;98064.97;15262521;19;20291;-58
2022/10/24 19:12:11;;;;;;;5.55;1.80;;;;;;;14.21;100.00;98068.72;15270207;19;20035;-57
2022/10/24 19:17:35;;;;;;;5.60;1.88;;;;;;;14.18;100.00;98064.53;15264517;19;20035;-61
2022/10/24 19:23:03;;;;;;;6.32;1.83;;;;;;;14.16;100.00;98066.59;15263444;19;20014;-61
2022/10/24 19:28:31;;;;;;;5.47;1.63;;;;;;;14.09;100.00;98061.09;15264283;19;20345;-60
2022/10/24 19:33:55;;;;;;;5.63;1.60;;;;;;;14.07;100.00;98056.91;15266823;19;20923;-60
2022/10/24 19:39:19;;;;;;;4.75;1.55;;;;;;;14.04;100.00;98050.00;15257337;19;20366;-60
2022/10/24 19:44:55;;;;;;;7.05;1.95;;;;;;;14.07;100.00;98062.31;15266385;19;20023;-61
2022/10/24 19:50:20;;;;;;;4.70;1.60;;;;;;;14.07;100.00;98068.56;15261223;19;20488;-63
2022/10/24 19:55:46;;;;;;;4.85;1.77;;;;;;;14.01;100.00;98059.34;15259625;19;20018;-62
2022/10/24 20:01:18;;;;;;;4.22;1.77;;;;;;;13.90;100.00;98061.72;15259745;19;20358;-61
2022/10/24 20:06:45;;;;;;;5.60;1.85;;;;;;;13.79;100.00;98074.75;15279125;19;20378;-62
2022/10/24 20:12:10;;;;;;;5.28;1.80;;;;;;;13.69;100.00;98068.78;15275861;19;20018;-62
2022/10/24 20:17:38;;;;;;;5.53;1.60;;;;;;;13.63;100.00;98085.78;15276870;19;20014;-62
2022/10/24 20:23:03;;;;;;;5.05;1.50;;;;;;;13.64;100.00;98073.94;15280941;19;20014;-60
2022/10/24 20:28:33;;;;;;;5.07;1.60;;;;;;;13.71;100.00;98067.56;15269627;19;20049;-62
2022/10/24 20:34:03;;;;;;;3.77;1.50;;;;;;;13.78;100.00;98085.75;15280164;19;20026;-63
2022/10/24 20:39:28;;;;;;;7.22;1.67;;;;;;;13.81;100.00;98085.38;15274038;19;20306;-62
2022/10/24 20:44:52;;;;;;;3.42;1.40;;;;;;;13.84;100.00;98080.41;15268467;19;20045;-59
2022/10/24 20:50:20;;;;;;;5.15;1.60;;;;;;;13.80;100.00;98089.97;15272779;19;20071;-57
2022/10/24 20:55:44;;;;;;;4.75;1.60;;;;;;;13.71;100.00;98099.19;15277247;19;20025;-54
2022/10/24 21:01:14;;;;;;;6.82;1.60;;;;;;;13.65;100.00;98091.84;15262729;19;20460;-60
2022/10/24 21:06:41;;;;;;;4.32;1.67;;;;;;;13.67;100.00;98095.22;15279062;19;20025;-60
2022/10/24 21:12:05;;;;;;;5.10;1.63;;;;;;;13.66;100.00;98099.78;15274950;19;20019;-58
2022/10/24 21:17:30;;;;;;;4.55;1.60;;;;;;;13.72;100.00;98106.28;15266069;19;20381;-59
2022/10/24 21:22:58;;;;;;;3.72;1.60;;;;;;;13.65;100.00;98113.50;15274860;19;20699;-58
2022/10/24 21:28:29;;;;;;;5.03;1.70;;;;;;;13.57;100.00;98114.44;15271390;19;20025;-58
2022/10/24 21:33:53;;;;;;;5.97;1.55;;;;;;;13.55;100.00;98125.47;15271338;19;20507;-56
2022/10/24 21:39:22;;;;;;;4.10;1.58;;;;;;;13.53;100.00;98130.22;15269195;19;20025;-54
2022/10/24 21:44:47;;;;;;;4.32;1.40;;;;;;;13.50;100.00;98138.72;15274825;19;20022;-57
2022/10/24 21:50:13;;;;;;;6.13;1.55;;;;;;;13.50;100.00;98127.06;15265198;19;20014;-57
2022/10/24 21:55:40;;;;;;;6.40;1.45;;;;;;;13.49;100.00;98131.63;15272668;19;20022;-58
2022/10/24 22:01:06;;;;;;;3.78;1.40;;;;;;;13.45;100.00;98127.63;15268108;19;20019;-58
2022/10/24 22:06:32;;;;;;;5.20;1.60;;;;;;;13.40;100.00;98136.31;15270245;19;20018;-59
2022/10/24 22:12:00;;;;;;;4.07;1.45;;;;;;;13.38;100.00;98132.06;15270000;19;20023;-57
2022/10/24 22:17:24;;;;;;;3.50;1.27;;;;;;;13.33;100.00;98129.09;15271367;19;20389;-57
2022/10/24 22:22:49;;;;;;;4.28;1.50;;;;;;;13.28;100.00;98139.59;15264702;19;20025;-56
2022/10/24 22:28:16;;;;;;;7.38;1.58;;;;;;;13.22;100.00;98149.31;15270485;19;20616;-55
2022/10/24 22:33:45;;;;;;;3.72;1.50;;;;;;;13.13;100.00;98155.84;15273841;19;20019;-58
2022/10/24 22:39:15;;;;;;;4.78;1.60;;;;;;;13.03;100.00;98156.09;15264115;19;20032;-52
2022/10/24 22:44:44;;;;;;;5.40;1.80;;;;;;;12.99;100.00;98173.72;15272529;19;20018;-53
2022/10/24 22:50:20;;;;;;;3.92;1.55;;;;;;;12.95;100.00;98181.31;15266468;19;20638;-58
2022/10/24 22:55:52;;;;;;;4.43;1.60;;;;;;;12.90;100.00;98183.75;15262409;19;20481;-58
2022/10/24 23:01:37;;;;;;;4.77;1.70;;;;;;;12.84;100.00;98188.03;15264228;19;20030;-61
2022/10/24 23:07:06;;;;;;;6.13;1.80;;;;;;;12.80;100.00;98192.09;15271079;19;20383;-58
2022/10/24 23:12:31;;;;;;;3.22;1.55;;;;;;;12.74;100.00;98184.75;15268255;19;20022;-61
2022/10/24 23:18:00;;;;;;;6.38;1.75;;;;;;;12.74;100.00;98182.88;15268436;19;20591;-58
2022/10/24 23:23:25;;;;;;;4.97;1.77;;;;;;;12.75;100.00;98189.13;15262648;19;20033;-60
2022/10/24 23:29:02;;;;;;;3.53;1.40;;;;;;;12.73;100.00;98188.47;15265913;19;20011;-59
2022/10/24 23:34:30;;;;;;;6.40;1.58;;;;;;;12.69;100.00;98198.78;15270247;19;20030;-58
2022/10/24 23:39:55;;;;;;;4.18;1.40;;;;;;;12.75;100.00;98194.53;15266375;19;20028;-60
2022/10/24 23:45:22;;;;;;;7.20;1.38;;;;;;;12.74;100.00;98190.97;15283666;19;20019;-61
2022/10/24 23:50:58;;;;;;;6.25;1.50;;;;;;;12.79;100.00;98183.16;15277442;19;20352;-60
2022/10/24 23:56:24;;;;;;;5.07;1.40;;;;;;;12.88;100.00;98189.31;15274516;19;20021;-59
